Time;durP1;ratioP1;P1;durP2;ratioP2;P2;SDS_P1;SDS_P2;PMS_P1;PMS_P2;Temp;Humidity;BMP_temperature;BMP_pressure;BME280_temperature;BME280_humidity;BME280_pressure;Samples;Min_cycle;Max_cycle;Signal;HPM_P1;HPM_P2
2022/12/15 00:41:05;;;;;;;40.28;22.88;;;;;;;1.20;86.69;94339.75;5009332;28;20088;-81
2022/12/15 00:43:32;;;;;;;41.83;23.80;;;;;;;1.99;86.49;94460.72;5008440;28;20070;-82
2022/12/15 00:48:42;;;;;;;42.13;23.33;;;;;;;1.87;86.69;94434.66;5008976;28;20061;-82
2022/12/15 00:51:08;;;;;;;41.60;24.27;;;;;;;1.44;87.36;94359.47;5009653;28;20042;-82
2022/12/15 01:21:00;;;;;;;39.47;22.33;;;;;;;1.39;88.19;94307.91;5008535;28;20069;-81
2022/12/15 01:23:26;;;;;;;43.05;22.45;;;;;;;1.35;87.76;94300.81;4990910;28;20513;-82
2022/12/15 01:25:52;;;;;;;37.20;21.10;;;;;;;1.21;87.81;94266.38;5007844;28;20059;-81
2022/12/15 01:28:19;;;;;;;43.05;23.23;;;;;;;0.73;88.63;94197.22;4989084;28;20183;-82
2022/12/15 01:30:45;;;;;;;47.45;22.05;;;;;;;1.53;88.36;94311.78;5008308;28;20053;-82
2022/12/15 01:33:11;;;;;;;42.40;20.50;;;;;;;1.42;88.72;94296.22;4990243;28;20042;-81
2022/12/15 01:35:37;;;;;;;41.90;23.33;;;;;;;1.36;88.43;94281.50;5006341;28;20057;-81
2022/12/15 01:38:03;;;;;;;40.03;21.67;;;;;;;1.84;88.11;94357.47;4979378;28;20868;-81
2022/12/15 01:40:43;;;;;;;40.05;21.92;;;;;;;1.88;87.92;94374.28;5004946;28;20061;-81
2022/12/15 01:43:30;;;;;;;43.85;23.02;;;;;;;1.09;88.11;94248.16;4999346;28;20053;-81
2022/12/15 01:46:25;;;;;;;41.13;22.35;;;;;;;2.02;88.29;94366.13;5005428;28;20045;-80
2022/12/15 01:49:16;;;;;;;38.47;21.15;;;;;;;2.06;88.51;94375.84;4985966;28;20046;-81
2022/12/15 01:51:47;;;;;;;40.38;23.40;;;;;;;1.46;88.30;94276.41;4990501;28;20048;-80
2022/12/15 01:54:20;;;;;;;38.45;22.73;;;;;;;1.52;87.86;94278.88;5005944;28;20108;-81
2022/12/15 01:56:49;;;;;;;48.40;23.90;;;;;;;1.19;88.58;94226.66;5024082;28;20080;-81
2022/12/15 01:59:25;;;;;;;45.40;23.17;;;;;;;2.15;87.97;94340.41;5008011;28;20041;-80
2022/12/15 02:01:51;;;;;;;41.15;22.40;;;;;;;0.96;88.26;94158.94;5002650;28;20125;-81
2022/12/15 02:04:21;;;;;;;41.30;21.98;;;;;;;1.86;88.19;94281.44;4996902;28;20108;-81
2022/12/15 02:06:47;;;;;;;38.17;22.05;;;;;;;1.89;88.18;94286.19;5001174;28;20491;-81
2022/12/15 02:09:14;;;;;;;41.50;22.08;;;;;;;1.72;89.14;94280.19;4989416;28;20038;-81
2022/12/15 02:12:09;;;;;;;38.92;21.70;;;;;;;1.61;89.35;94236.63;5007643;28;20049;-81
2022/12/15 02:15:07;;;;;;;40.55;21.48;;;;;;;1.37;89.09;94238.69;4989777;28;20753;-81
2022/12/15 02:17:51;;;;;;;35.83;20.52;;;;;;;2.13;88.92;94326.00;5007791;28;20062;-81
2022/12/15 02:20:41;;;;;;;38.42;21.15;;;;;;;2.10;89.03;94288.03;4989569;28;20046;-81
2022/12/15 02:23:32;;;;;;;34.47;19.48;;;;;;;1.79;89.21;94265.13;4990642;28;20041;-81
2022/12/15 02:26:04;;;;;;;33.60;20.35;;;;;;;1.92;89.31;94278.63;5008589;28;20046;-81
2022/12/15 02:28:29;;;;;;;35.58;19.77;;;;;;;1.78;89.64;94294.91;4991868;28;20089;-81
2022/12/15 02:34:29;;;;;;;35.90;19.55;;;;;;;1.58;89.28;94213.63;4990244;28;20060;-81
2022/12/15 02:37:05;;;;;;;31.20;17.15;;;;;;;1.38;89.55;94235.81;4959186;28;20046;-81
2022/12/15 02:39:31;;;;;;;35.70;17.83;;;;;;;1.96;89.21;94302.50;4982387;28;20783;-81
2022/12/15 02:41:56;;;;;;;32.10;17.48;;;;;;;1.95;89.28;94300.91;5007328;28;20130;-82
2022/12/15 02:44:27;;;;;;;27.48;15.43;;;;;;;1.94;89.34;94283.63;5025434;28;20065;-81
2022/12/15 02:47:11;;;;;;;23.98;13.77;;;;;;;1.86;89.71;94299.72;5034830;28;20049;-81
2022/12/15 02:50:12;;;;;;;29.00;15.00;;;;;;;1.94;89.65;94309.78;5035675;28;20045;-81
2022/12/15 02:52:43;;;;;;;22.73;13.48;;;;;;;1.90;89.17;94332.22;4938937;29;20051;-81
2022/12/15 02:55:20;;;;;;;23.75;13.27;;;;;;;0.73;89.01;94157.28;5010153;28;20139;-81
2022/12/15 02:57:59;;;;;;;22.05;13.55;;;;;;;0.38;89.13;94113.91;5016200;28;20048;-81
2022/12/15 03:00:26;;;;;;;24.77;14.25;;;;;;;1.59;89.83;94270.09;5016683;28;20041;-81
2022/12/15 03:02:54;;;;;;;28.92;14.75;;;;;;;1.38;89.41;94230.56;5016707;28;20041;-81
2022/12/15 03:05:20;;;;;;;29.83;13.07;;;;;;;1.96;89.03;94328.66;5016378;28;20057;-81
2022/12/15 03:07:50;;;;;;;23.70;12.88;;;;;;;1.93;89.42;94345.59;5033003;28;20427;-81
2022/12/15 03:10:16;;;;;;;21.02;12.18;;;;;;;1.87;89.60;94348.38;5032267;28;20263;-81
2022/12/15 03:12:42;;;;;;;22.02;13.45;;;;;;;1.41;89.42;94245.00;5032812;28;20041;-81
2022/12/15 03:15:07;;;;;;;19.33;12.60;;;;;;;1.82;89.30;94322.19;5032796;28;20076;-81
2022/12/15 03:17:34;;;;;;;19.33;12.65;;;;;;;1.76;89.83;94318.66;5032997;28;20084;-81
2022/12/15 03:19:59;;;;;;;18.63;11.20;;;;;;;1.50;89.67;94288.78;5033703;28;20119;-81
2022/12/15 03:22:25;;;;;;;18.27;11.70;;;;;;;1.57;89.84;94267.69;5033417;28;20037;-81
2022/12/15 03:24:50;;;;;;;19.05;11.20;;;;;;;1.60;89.43;94264.63;5033672;28;20053;-81
2022/12/15 03:27:16;;;;;;;20.45;11.35;;;;;;;1.18;89.73;94214.63;5033876;28;20042;-81
2022/12/15 03:29:41;;;;;;;23.45;12.93;;;;;;;1.87;90.05;94309.97;5015896;28;20045;-82
2022/12/15 03:32:07;;;;;;;21.20;13.48;;;;;;;0.86;89.62;94177.81;5014861;28;20053;-81
2022/12/15 03:34:32;;;;;;;22.60;12.95;;;;;;;0.92;89.99;94210.81;5033399;28;20101;-81
2022/12/15 03:36:58;;;;;;;20.77;12.90;;;;;;;1.38;91.01;94280.22;5032830;28;20103;-81
2022/12/15 03:39:23;;;;;;;24.75;13.82;;;;;;;1.48;90.42;94293.44;5032987;28;20057;-81
2022/12/15 03:41:49;;;;;;;23.88;13.40;;;;;;;1.02;90.54;94218.00;5033376;28;20613;-81
2022/12/15 03:44:14;;;;;;;24.80;14.30;;;;;;;0.64;91.32;94159.47;5033014;28;20053;-82
2022/12/15 03:46:39;;;;;;;20.70;12.85;;;;;;;1.65;91.33;94321.38;5033953;28;20053;-82
2022/12/15 03:49:05;;;;;;;23.40;13.70;;;;;;;1.57;90.84;94293.84;5014228;28;20110;-81
2022/12/15 03:51:31;;;;;;;22.95;12.98;;;;;;;1.13;90.67;94235.44;5015559;28;20064;-81
2022/12/15 03:53:57;;;;;;;19.05;11.63;;;;;;;0.95;89.85;94218.19;5033262;28;20056;-81
2022/12/15 03:56:23;;;;;;;19.33;11.07;;;;;;;0.62;89.91;94171.16;5033282;28;20044;-80
2022/12/15 03:58:49;;;;;;;20.55;11.27;;;;;;;1.34;90.01;94286.94;5031591;28;20049;-81
2022/12/15 04:01:29;;;;;;;21.50;12.10;;;;;;;1.96;90.02;94357.41;5014373;28;20119;-81
2022/12/15 04:03:55;;;;;;;23.60;12.13;;;;;;;1.28;90.17;94289.72;5014789;28;20048;-80
2022/12/15 04:06:21;;;;;;;19.30;11.40;;;;;;;1.93;90.82;94382.19;5033109;28;20463;-81
2022/12/15 04:08:47;;;;;;;16.90;11.07;;;;;;;1.84;90.45;94375.00;5032916;28;20046;-82
2022/12/15 04:11:12;;;;;;;17.20;10.77;;;;;;;1.06;90.13;94246.03;5032644;28;20063;-81
2022/12/15 04:13:38;;;;;;;17.70;11.27;;;;;;;1.12;90.12;94273.03;5016734;28;20048;-82
2022/12/15 04:16:04;;;;;;;20.55;11.90;;;;;;;1.67;90.36;94320.13;5015844;28;20045;-81
2022/12/15 04:18:29;;;;;;;18.33;10.90;;;;;;;1.65;89.90;94310.94;5012535;28;20053;-82
2022/12/15 04:20:55;;;;;;;16.85;10.10;;;;;;;1.76;89.11;94318.66;4999865;28;20046;-81
2022/12/15 04:23:21;;;;;;;17.63;11.02;;;;;;;2.24;89.57;94388.66;5011902;28;20058;-81
2022/12/15 05:31:55;;;;;;;37.42;18.52;;;;;;;1.86;88.64;94431.25;5001089;28;20193;-82
2022/12/15 05:34:22;;;;;;;29.90;17.05;;;;;;;2.18;88.62;94441.16;4982398;28;20495;-82
2022/12/15 05:36:48;;;;;;;31.15;17.40;;;;;;;2.29;88.41;94469.84;4975422;28;20042;-83
2022/12/15 05:39:14;;;;;;;38.45;21.05;;;;;;;2.04;88.15;94429.44;4983041;28;20125;-82
2022/12/15 05:41:40;;;;;;;33.22;17.98;;;;;;;2.50;87.95;94502.34;4982913;28;20404;-82
2022/12/15 05:44:05;;;;;;;32.35;17.10;;;;;;;1.90;87.75;94419.31;5002137;28;20371;-82
2022/12/15 05:46:30;;;;;;;29.35;17.27;;;;;;;2.28;87.80;94481.34;5008865;28;20116;-82
2022/12/15 05:48:56;;;;;;;30.65;17.25;;;;;;;1.50;87.46;94359.31;5002729;28;20038;-82
2022/12/15 05:51:21;;;;;;;27.80;15.98;;;;;;;2.13;89.12;94528.22;4989543;28;20144;-83
2022/12/15 05:53:47;;;;;;;29.70;16.85;;;;;;;1.96;89.65;94493.38;4987686;28;20083;-81
2022/12/15 05:56:13;;;;;;;34.70;17.15;;;;;;;2.18;89.39;94556.25;4988360;28;20037;-82
2022/12/15 05:58:40;;;;;;;31.67;17.15;;;;;;;1.30;89.18;94416.44;5000284;28;20042;-81
2022/12/15 06:01:10;;;;;;;31.65;17.73;;;;;;;2.08;89.57;94537.78;4984493;28;20101;-82
2022/12/15 06:03:37;;;;;;;28.57;16.87;;;;;;;1.39;90.97;94487.41;4985499;28;20069;-82
2022/12/15 06:06:04;;;;;;;32.85;17.25;;;;;;;0.67;91.73;94399.09;4998181;28;20545;-81
2022/12/15 06:08:32;;;;;;;30.25;17.17;;;;;;;1.03;92.67;94465.84;5002309;28;20054;-81
2022/12/15 06:10:58;;;;;;;37.60;19.50;;;;;;;1.75;92.55;94596.03;4974882;28;20574;-81
2022/12/15 06:13:24;;;;;;;34.80;18.92;;;;;;;1.15;92.53;94484.88;4722226;28;22558;-83
2022/12/15 06:16:01;;;;;;;39.28;19.77;;;;;;;1.91;92.40;94588.22;4987034;28;20091;-83
2022/12/15 06:18:29;;;;;;;32.30;19.85;;;;;;;1.94;92.72;94594.81;5022154;28;20110;-82
2022/12/15 06:21:08;;;;;;;37.75;20.67;;;;;;;1.73;92.25;94548.41;5016718;28;20045;-82
2022/12/15 06:23:34;;;;;;;39.85;22.00;;;;;;;1.38;92.38;94499.66;5019748;28;20073;-84
2022/12/15 06:26:07;;;;;;;45.72;23.08;;;;;;;1.23;92.07;94495.97;5004410;28;20602;-84
2022/12/15 06:28:33;;;;;;;44.22;24.00;;;;;;;1.54;92.66;94579.16;4999283;28;20041;-84
2022/12/15 06:31:02;;;;;;;45.35;25.23;;;;;;;1.79;93.46;94590.09;4997602;28;20103;-85
2022/12/15 06:33:28;;;;;;;50.63;26.45;;;;;;;1.84;93.64;94597.22;5019930;28;20029;-85
2022/12/15 06:35:53;;;;;;;53.53;26.30;;;;;;;1.46;93.62;94535.09;5025297;28;20411;-84
2022/12/15 06:38:19;;;;;;;52.30;27.08;;;;;;;1.91;93.07;94603.09;5003221;28;20045;-84
2022/12/15 06:40:44;;;;;;;49.75;26.13;;;;;;;1.54;92.54;94527.66;5003567;28;20184;-84
2022/12/15 06:43:10;;;;;;;46.38;25.98;;;;;;;1.77;92.91;94615.66;5016219;28;20041;-84
2022/12/15 06:45:35;;;;;;;45.30;25.60;;;;;;;1.45;93.20;94557.03;5001609;28;20092;-82
2022/12/15 06:48:00;;;;;;;50.92;26.40;;;;;;;1.44;93.55;94565.91;4996691;28;20052;-81
2022/12/15 06:50:26;;;;;;;48.95;26.00;;;;;;;1.82;93.53;94594.88;5000893;28;20038;-83
2022/12/15 06:52:52;;;;;;;43.35;25.25;;;;;;;1.61;92.66;94534.56;5018838;28;20472;-83
2022/12/15 06:55:19;;;;;;;48.60;25.58;;;;;;;2.07;92.57;94604.97;5016927;28;20558;-83
2022/12/15 06:57:46;;;;;;;44.33;23.85;;;;;;;2.22;92.08;94635.84;5020075;28;20234;-82
2022/12/15 07:00:14;;;;;;;41.70;22.80;;;;;;;1.22;91.92;94502.25;4999885;28;20135;-81
2022/12/15 07:02:41;;;;;;;42.88;22.85;;;;;;;1.99;92.29;94596.72;5027046;28;20301;-83
2022/12/15 07:05:06;;;;;;;41.45;23.92;;;;;;;1.82;92.21;94539.97;5015885;28;20045;-83
2022/12/15 07:07:31;;;;;;;42.67;22.98;;;;;;;2.43;91.43;94656.13;5003660;28;20045;-82
2022/12/15 07:09:57;;;;;;;36.90;21.35;;;;;;;2.04;91.73;94634.25;5019651;28;20141;-83
2022/12/15 07:12:22;;;;;;;42.80;22.80;;;;;;;1.40;91.94;94504.66;5004682;28;20352;-83
2022/12/15 07:14:48;;;;;;;38.50;21.33;;;;;;;2.44;92.10;94672.63;5014291;28;20117;-83
2022/12/15 07:17:13;;;;;;;40.00;22.15;;;;;;;2.37;91.52;94648.41;4998519;28;20132;-82
2022/12/15 07:19:38;;;;;;;38.63;21.60;;;;;;;2.06;91.01;94632.16;4999693;28;20049;-81
2022/12/15 07:22:04;;;;;;;42.78;22.85;;;;;;;2.11;92.26;94652.41;5017733;28;20471;-81
2022/12/15 07:24:29;;;;;;;40.50;22.13;;;;;;;2.29;92.80;94673.94;4995243;28;20044;-81
2022/12/15 07:26:55;;;;;;;38.30;22.13;;;;;;;2.17;92.73;94647.03;5018850;28;20197;-81
2022/12/15 07:29:20;;;;;;;42.60;22.42;;;;;;;1.92;92.31;94575.94;5014893;28;20522;-82
2022/12/15 07:31:45;;;;;;;43.33;22.02;;;;;;;1.99;91.86;94584.44;4997430;28;20048;-82
2022/12/15 07:34:11;;;;;;;42.28;22.48;;;;;;;2.72;91.71;94689.09;5018456;28;20340;-82
2022/12/15 07:36:36;;;;;;;48.65;22.45;;;;;;;2.22;90.64;94600.03;5016426;28;20475;-81
2022/12/15 07:39:03;;;;;;;44.53;23.20;;;;;;;2.34;91.29;94662.78;5020567;28;20371;-82
2022/12/15 07:41:28;;;;;;;39.88;21.27;;;;;;;2.33;90.77;94642.88;5014319;28;20120;-82
2022/12/15 07:43:55;;;;;;;42.17;20.80;;;;;;;2.82;91.19;94703.41;5015226;28;20132;-81
2022/12/15 07:46:20;;;;;;;36.97;20.63;;;;;;;2.40;90.64;94613.94;5017954;28;20038;-82
2022/12/15 07:48:46;;;;;;;37.05;20.23;;;;;;;3.02;90.20;94682.78;5016022;28;20092;-83
2022/12/15 07:51:11;;;;;;;40.85;21.90;;;;;;;3.14;89.45;94698.38;4999203;28;20333;-83
2022/12/15 07:53:37;;;;;;;34.45;19.08;;;;;;;2.56;89.50;94600.88;5011945;28;20233;-84
2022/12/15 07:56:04;;;;;;;37.00;20.42;;;;;;;2.52;88.76;94602.34;5016803;28;20037;-83
2022/12/15 07:58:30;;;;;;;34.33;19.58;;;;;;;2.99;88.67;94668.31;5012530;28;20037;-81
2022/12/15 08:01:01;;;;;;;35.70;19.23;;;;;;;3.29;88.64;94694.19;4997306;28;20461;-83
2022/12/15 08:03:27;;;;;;;38.87;19.30;;;;;;;2.16;88.11;94543.41;5016049;28;20095;-84
2022/12/15 08:05:53;;;;;;;32.78;18.38;;;;;;;3.34;88.15;94698.72;5000855;28;20454;-82
2022/12/15 08:08:19;;;;;;;38.85;20.77;;;;;;;3.07;87.80;94667.13;4992617;28;20062;-82
2022/12/15 08:10:44;;;;;;;40.63;22.20;;;;;;;2.39;87.47;94536.44;4998642;28;20145;-82
2022/12/15 08:13:11;;;;;;;32.78;18.08;;;;;;;2.92;87.43;94638.88;4992328;28;20041;-82
2022/12/15 08:15:36;;;;;;;31.45;17.48;;;;;;;3.65;86.76;94734.84;5010660;28;20383;-82
2022/12/15 08:18:03;;;;;;;29.27;17.85;;;;;;;3.69;87.09;94729.88;5010430;28;20454;-83
2022/12/15 08:20:30;;;;;;;35.88;18.52;;;;;;;3.31;86.66;94678.22;4995480;28;20038;-82
2022/12/15 08:22:56;;;;;;;33.95;17.95;;;;;;;3.83;86.82;94745.03;5002738;28;20057;-82
2022/12/15 08:25:21;;;;;;;30.95;18.27;;;;;;;3.86;86.66;94754.25;4988801;28;20079;-83
2022/12/15 08:27:50;;;;;;;37.22;19.63;;;;;;;3.51;86.66;94685.59;4992749;28;20925;-82
2022/12/15 08:30:17;;;;;;;34.20;18.15;;;;;;;3.98;86.72;94754.13;5005356;28;20563;-82
2022/12/15 08:32:42;;;;;;;34.17;18.92;;;;;;;3.25;86.51;94645.13;4993664;28;20053;-83
2022/12/15 08:35:08;;;;;;;33.08;18.73;;;;;;;3.73;86.87;94713.44;4989757;28;20062;-81
2022/12/15 08:37:34;;;;;;;30.48;18.15;;;;;;;3.58;86.37;94697.50;4990109;28;20042;-83
2022/12/15 08:39:59;;;;;;;29.33;17.85;;;;;;;3.28;86.43;94613.19;4989556;28;20108;-83
2022/12/15 08:42:25;;;;;;;33.85;19.33;;;;;;;4.12;86.29;94745.66;5000752;28;20042;-81
2022/12/15 08:44:50;;;;;;;30.05;18.02;;;;;;;3.67;86.70;94664.56;4989157;28;20041;-81
2022/12/15 08:47:16;;;;;;;32.67;18.42;;;;;;;3.45;86.35;94625.22;4990440;28;20513;-82
2022/12/15 08:49:41;;;;;;;35.15;18.67;;;;;;;3.41;86.50;94607.59;4993322;28;20389;-82
2022/12/15 08:52:07;;;;;;;31.92;17.98;;;;;;;3.43;85.98;94619.41;4991204;28;20049;-84
2022/12/15 08:54:33;;;;;;;31.15;17.85;;;;;;;4.40;86.28;94757.84;4992237;28;20225;-83
2022/12/15 08:56:59;;;;;;;34.50;20.42;;;;;;;4.25;85.64;94742.72;5004797;28;20726;-84
2022/12/15 08:59:24;;;;;;;32.40;19.35;;;;;;;4.61;85.74;94775.41;4994684;28;20129;-83
2022/12/15 09:01:49;;;;;;;35.10;20.10;;;;;;;4.34;86.10;94711.56;5004626;28;20483;-82
2022/12/15 09:04:15;;;;;;;42.20;24.92;;;;;;;4.10;85.22;94673.50;4985363;28;20070;-85
2022/12/15 09:06:41;;;;;;;41.50;24.00;;;;;;;4.64;85.90;94750.50;4992201;28;20038;-82
2022/12/15 09:09:09;;;;;;;41.28;24.48;;;;;;;3.97;85.58;94647.63;5004545;28;20215;-82
2022/12/15 09:11:35;;;;;;;49.92;29.08;;;;;;;4.81;85.27;94760.91;4995362;28;20050;-82
2022/12/15 09:14:01;;;;;;;53.08;28.10;;;;;;;4.47;85.17;94705.13;4992876;28;20037;-81
2022/12/15 09:16:26;;;;;;;51.85;26.65;;;;;;;4.11;85.38;94640.97;4992369;28;20046;-82
2022/12/15 09:18:54;;;;;;;45.97;24.67;;;;;;;4.69;85.00;94739.25;4993958;28;20080;-83
2022/12/15 09:21:22;;;;;;;48.88;25.63;;;;;;;4.09;84.86;94630.72;4990139;28;20133;-82
2022/12/15 09:23:50;;;;;;;50.38;28.10;;;;;;;4.89;84.89;94750.75;5012314;28;20132;-81
2022/12/15 09:26:17;;;;;;;48.40;27.75;;;;;;;4.71;85.30;94740.59;4992845;28;20052;-83
2022/12/15 09:28:43;;;;;;;55.95;30.48;;;;;;;4.27;85.07;94646.13;4996931;28;20376;-83
2022/12/15 09:31:23;;;;;;;56.30;30.73;;;;;;;5.11;84.82;94776.97;5016440;28;20045;-82
2022/12/15 09:33:54;;;;;;;65.43;37.53;;;;;;;4.91;84.80;94740.78;4999884;28;20379;-81
2022/12/15 09:36:20;;;;;;;74.35;41.65;;;;;;;4.48;84.22;94667.34;5020648;28;20029;-82
2022/12/15 09:38:46;;;;;;;70.60;40.20;;;;;;;5.02;84.22;94747.72;4995360;28;20038;-83
2022/12/15 09:41:14;;;;;;;88.80;48.38;;;;;;;5.25;84.09;94778.16;5005947;28;20046;-86
2022/12/15 09:43:54;;;;;;;94.45;49.72;;;;;;;5.27;84.64;94786.59;5011837;28;20029;-82
2022/12/15 09:46:23;;;;;;;90.03;52.22;;;;;;;5.29;83.99;94773.19;5020543;28;20041;-82
2022/12/15 09:48:50;;;;;;;90.53;46.97;;;;;;;5.30;84.17;94757.16;5005902;28;20230;-82
2022/12/15 09:51:17;;;;;;;100.93;51.42;;;;;;;5.35;84.19;94767.72;4994086;28;20800;-83
2022/12/15 09:53:44;;;;;;;96.22;48.95;;;;;;;5.00;83.70;94691.19;5017615;28;20053;-82
2022/12/15 09:56:20;;;;;;;88.40;48.00;;;;;;;4.96;83.70;94695.34;4999404;28;20087;-83
2022/12/15 09:59:04;;;;;;;83.57;46.80;;;;;;;5.59;84.38;94791.84;5001052;28;20191;-83
2022/12/15 10:02:14;;;;;;;87.70;47.72;;;;;;;5.47;83.87;94790.44;5001199;28;20052;-84
2022/12/15 10:04:52;;;;;;;92.03;44.28;;;;;;;5.48;83.52;94774.41;4942076;28;20879;-83
2022/12/15 10:07:33;;;;;;;79.53;43.08;;;;;;;5.16;82.94;94708.69;4956448;28;20058;-84
2022/12/15 10:10:05;;;;;;;83.60;44.20;;;;;;;5.10;83.08;94680.00;4988587;28;20665;-83
2022/12/15 10:12:36;;;;;;;80.43;43.13;;;;;;;5.04;83.08;94668.63;4999543;28;20533;-83
2022/12/15 10:15:13;;;;;;;78.95;43.22;;;;;;;5.07;82.18;94691.00;5011784;28;20044;-83
2022/12/15 10:18:02;;;;;;;79.28;41.78;;;;;;;5.93;82.60;94762.66;4995967;28;20033;-84
2022/12/15 10:20:30;;;;;;;70.85;37.10;;;;;;;5.73;82.62;94734.31;4997452;28;20041;-82
2022/12/15 10:23:01;;;;;;;66.15;36.15;;;;;;;4.97;81.96;94594.47;4997383;28;20134;-82
2022/12/15 10:25:29;;;;;;;66.70;35.58;;;;;;;5.73;81.97;94732.50;5015938;28;20049;-81
2022/12/15 10:28:15;;;;;;;63.17;34.92;;;;;;;6.24;82.72;94785.47;5019592;28;20172;-82
2022/12/15 10:31:23;;;;;;;64.20;34.33;;;;;;;6.09;83.44;94780.13;4996875;28;20590;-84
2022/12/15 10:33:55;;;;;;;60.42;31.85;;;;;;;5.18;82.21;94630.38;5001976;28;20106;-84
2022/12/15 10:36:21;;;;;;;48.95;29.50;;;;;;;5.82;81.46;94704.66;4999336;28;20138;-84
2022/12/15 10:38:47;;;;;;;56.10;30.45;;;;;;;5.35;81.21;94665.16;5014773;28;20531;-83
2022/12/15 10:41:22;;;;;;;50.65;29.65;;;;;;;6.04;82.75;94772.19;5017825;28;20041;-83
2022/12/15 10:43:50;;;;;;;55.17;32.60;;;;;;;5.91;81.44;94730.53;5011569;28;20037;-82
2022/12/15 10:46:20;;;;;;;51.00;30.80;;;;;;;5.51;80.80;94688.94;5016292;28;20508;-81
2022/12/15 10:48:58;;;;;;;50.13;29.80;;;;;;;6.20;81.28;94779.13;4998505;28;20080;-82
2022/12/15 10:51:23;;;;;;;51.10;29.25;;;;;;;6.09;80.96;94783.56;5017635;28;20041;-82
2022/12/15 10:54:15;;;;;;;50.78;30.85;;;;;;;6.23;80.54;94778.63;5015870;28;20048;-82
2022/12/15 10:56:56;;;;;;;51.92;29.83;;;;;;;6.25;80.78;94779.16;5017797;28;20033;-82
2022/12/15 10:59:23;;;;;;;49.60;29.33;;;;;;;6.18;81.28;94794.38;5007843;28;20491;-82
2022/12/15 11:01:50;;;;;;;47.03;28.65;;;;;;;5.70;80.77;94696.19;5020845;28;20042;-84
2022/12/15 11:04:32;;;;;;;51.40;28.45;;;;;;;5.72;81.52;94709.09;5007411;28;20041;-82
2022/12/15 11:07:00;;;;;;;53.33;30.17;;;;;;;6.24;82.50;94793.38;5003914;28;20455;-82
2022/12/15 11:09:26;;;;;;;50.40;29.90;;;;;;;6.29;81.90;94768.91;5019987;28;20048;-82
2022/12/15 11:14:53;;;;;;;54.58;29.10;;;;;;;5.39;81.26;94615.50;5024513;28;20099;-86
2022/12/15 11:17:22;;;;;;;57.15;32.10;;;;;;;4.30;81.74;94426.97;4999799;28;20205;-83
2022/12/15 11:19:54;;;;;;;57.25;29.80;;;;;;;6.43;82.35;94781.34;5008838;28;20384;-82
2022/12/15 11:22:39;;;;;;;60.35;30.33;;;;;;;6.58;81.82;94776.13;5011312;28;20237;-85
2022/12/15 11:25:30;;;;;;;55.90;31.20;;;;;;;6.49;81.39;94759.25;5004735;28;20241;-83
2022/12/15 11:27:58;;;;;;;56.78;30.55;;;;;;;6.82;80.80;94781.75;5004345;28;20051;-83
2022/12/15 11:30:32;;;;;;;52.22;30.45;;;;;;;6.29;80.77;94700.44;5013812;28;20109;-82
2022/12/15 11:32:59;;;;;;;48.90;29.00;;;;;;;6.48;80.24;94717.38;5013650;28;20046;-83
2022/12/15 11:35:32;;;;;;;49.22;30.05;;;;;;;6.52;80.46;94705.25;5014800;28;20066;-83
2022/12/15 11:38:24;;;;;;;53.75;29.55;;;;;;;6.92;80.11;94773.88;5012250;28;20077;-83
2022/12/15 11:40:53;;;;;;;56.15;30.55;;;;;;;6.80;80.01;94760.13;5006420;28;20137;-83
2022/12/15 11:43:30;;;;;;;57.00;30.02;;;;;;;7.11;80.02;94797.13;4997848;28;20045;-83
2022/12/15 11:46:20;;;;;;;52.10;29.85;;;;;;;7.22;79.16;94793.47;4998300;28;20042;-82
2022/12/15 11:49:33;;;;;;;51.92;30.55;;;;;;;6.76;79.80;94716.13;4994989;28;20055;-83
2022/12/15 11:52:05;;;;;;;56.85;31.92;;;;;;;7.28;79.41;94805.59;5000737;28;20049;-83
2022/12/15 11:54:38;;;;;;;;;;;;;;;7.37;79.29;94801.41;5011396;28;20046;-82
2022/12/15 11:57:42;;;;;;;52.08;31.02;;;;;;;7.54;78.93;94804.59;5015432;28;20015;-82
2022/12/15 12:00:15;;;;;;;52.00;31.65;;;;;;;7.68;78.75;94804.84;5015086;28;20179;-82
2022/12/15 12:03:18;;;;;;;59.60;31.70;;;;;;;7.78;78.64;94799.56;4997167;28;20077;-83
2022/12/15 12:05:57;;;;;;;57.45;32.05;;;;;;;7.46;78.49;94741.78;5021617;28;20486;-82
2022/12/15 12:08:57;;;;;;;52.67;31.58;;;;;;;8.00;77.78;94809.84;5023816;28;20259;-82
2022/12/15 12:11:31;;;;;;;57.53;31.23;;;;;;;7.90;77.29;94813.28;5000594;28;20438;-82
2022/12/15 12:14:12;;;;;;;50.28;29.50;;;;;;;7.96;77.63;94814.06;5011962;28;20076;-84
2022/12/15 12:17:10;;;;;;;52.25;29.05;;;;;;;8.07;77.43;94810.38;4994247;28;20207;-84
2022/12/15 12:20:12;;;;;;;52.83;30.40;;;;;;;7.79;77.69;94766.03;4991681;28;20240;-84
2022/12/15 12:22:56;;;;;;;52.10;28.17;;;;;;;7.31;76.48;94697.72;4984476;28;20049;-82
2022/12/15 12:25:23;;;;;;;56.38;30.92;;;;;;;7.94;76.88;94777.34;4997447;28;20049;-81
2022/12/15 12:28:16;;;;;;;55.13;31.08;;;;;;;8.32;76.93;94820.13;4995335;28;21247;-82
2022/12/15 12:30:45;;;;;;;57.85;31.33;;;;;;;7.97;76.21;94762.84;4993226;28;20041;-82
2022/12/15 12:33:33;;;;;;;50.47;28.85;;;;;;;7.88;76.23;94745.94;5015154;28;20064;-83
2022/12/15 12:36:08;;;;;;;56.10;31.70;;;;;;;7.83;75.28;94777.66;4997699;28;20077;-82
2022/12/15 12:38:49;;;;;;;51.97;30.50;;;;;;;7.91;75.07;94796.41;5001199;28;20045;-83
2022/12/15 12:41:42;;;;;;;49.90;29.60;;;;;;;8.41;74.90;94837.81;5016555;28;20045;-83
2022/12/15 12:44:28;;;;;;;54.75;30.15;;;;;;;7.88;75.25;94780.28;4995713;28;20152;-83
2022/12/15 12:46:57;;;;;;;57.72;32.03;;;;;;;8.30;74.61;94830.94;4995346;28;20077;-83
2022/12/15 12:49:49;;;;;;;61.80;34.70;;;;;;;8.07;74.35;94771.56;5008388;28;22079;-82
2022/12/15 12:52:22;;;;;;;62.00;34.25;;;;;;;8.55;74.19;94839.88;5012267;28;20044;-81
2022/12/15 12:55:20;;;;;;;63.45;36.53;;;;;;;7.84;74.85;94764.19;4999786;28;20038;-83
2022/12/15 12:57:46;;;;;;;54.67;31.83;;;;;;;7.96;74.94;94780.53;4997706;28;20041;-83
2022/12/15 13:00:28;;;;;;;58.67;34.15;;;;;;;8.42;74.64;94857.09;5000656;28;20049;-83
2022/12/15 13:03:12;;;;;;;63.85;34.42;;;;;;;8.42;74.89;94862.38;5007654;28;20131;-84
2022/12/15 13:05:40;;;;;;;59.55;32.15;;;;;;;8.37;75.14;94863.19;4986088;28;20118;-83
2022/12/15 13:08:05;;;;;;;61.70;33.80;;;;;;;8.38;74.75;94862.13;4989914;28;20252;-83
2022/12/15 13:10:33;;;;;;;64.07;34.78;;;;;;;8.45;74.27;94854.72;4985154;28;20050;-83
2022/12/15 13:13:17;;;;;;;60.45;33.40;;;;;;;8.16;74.66;94798.22;4989597;28;20507;-83
2022/12/15 13:15:48;;;;;;;54.63;31.65;;;;;;;7.25;75.20;94674.22;4983906;28;20046;-82
2022/12/15 13:18:21;;;;;;;60.35;34.35;;;;;;;8.36;74.38;94831.75;4987759;28;20065;-84
2022/12/15 13:20:49;;;;;;;53.28;31.20;;;;;;;8.04;74.80;94818.81;4988457;28;20075;-81
2022/12/15 13:23:20;;;;;;;62.53;35.05;;;;;;;8.40;74.88;94867.94;4990069;28;20080;-80
2022/12/15 13:25:52;;;;;;;;;;;;;;;8.40;74.92;94865.28;4991403;28;20084;-82
2022/12/15 13:28:29;;;;;;;64.63;33.83;;;;;;;8.25;75.53;94864.47;4986484;28;19925;-81
2022/12/15 13:31:13;;;;;;;62.05;33.67;;;;;;;7.98;76.30;94878.78;4987404;28;20045;-81
2022/12/15 13:34:09;;;;;;;63.33;35.88;;;;;;;8.10;75.81;94876.66;4990925;28;20049;-82
2022/12/15 13:36:40;;;;;;;58.78;33.35;;;;;;;8.09;75.76;94869.78;4987697;28;20034;-81
2022/12/15 13:39:12;;;;;;;70.05;35.67;;;;;;;8.08;75.95;94870.84;4997044;28;20075;-84
2022/12/15 13:41:40;;;;;;;58.90;34.17;;;;;;;7.61;76.30;94822.78;4988338;28;20037;-82
2022/12/15 13:44:13;;;;;;;63.83;35.63;;;;;;;7.49;76.27;94801.13;4985559;28;20041;-82
2022/12/15 13:46:43;;;;;;;62.90;34.95;;;;;;;6.77;77.09;94744.06;5002547;28;20066;-81
2022/12/15 13:49:21;;;;;;;59.70;33.80;;;;;;;7.17;77.60;94814.56;4989449;28;20056;-82
2022/12/15 13:51:47;;;;;;;54.42;31.88;;;;;;;7.78;77.31;94888.53;4990195;28;20737;-81
2022/12/15 13:54:20;;;;;;;52.53;30.40;;;;;;;7.54;76.82;94860.00;4987024;28;20741;-80
2022/12/15 13:56:48;;;;;;;50.60;29.20;;;;;;;7.64;77.01;94886.38;4992029;28;20029;-80
2022/12/15 13:59:24;;;;;;;52.00;30.20;;;;;;;7.05;76.97;94792.88;4988079;28;20065;-80
2022/12/15 14:01:51;;;;;;;51.45;29.42;;;;;;;7.43;76.64;94850.47;5006431;28;20209;-81
2022/12/15 14:04:18;;;;;;;52.60;29.90;;;;;;;6.90;77.02;94777.81;4993969;28;20622;-82
2022/12/15 14:06:54;;;;;;;56.33;30.98;;;;;;;7.36;77.39;94895.56;4990766;28;20049;-82
2022/12/15 14:09:40;;;;;;;61.70;31.70;;;;;;;7.40;77.52;94903.75;5004790;28;20515;-82